Ottertail, Minnesota
Current Conditions -  °F | °C
As of 7:53 PM on Tuesday 25 Nov 2014 (Local Time) from KADC Reporting Station
Clear Clear  
Wind Chill: 11°   Ceiling: Unl
Heat Index: 18°   Visibility: 10mi
Dew Point:   Wind: 5mph
Humidity: 68%   Direction: 110°ESE
Pressure: 29.93"   Gusts: NA
Location:  46.43°N, 95.56°W
Report Text: KADC 260153Z AUTO 11004KT 10SM CLR M08/M13 A2993 RMK AO2
Loading
Personal Weather Stations






























Interactive Weather Map New forecast layout! Learn more

10-Day Weather Forecast

Advertisements
Track Severe Weather on mobile